Time;durP1;ratioP1;P1;durP2;ratioP2;P2;SDS_P1;SDS_P2;PMS_P1;PMS_P2;Temp;Humidity;BMP_temperature;BMP_pressure;BME280_temperature;BME280_humidity;BME280_pressure;Samples;Min_cycle;Max_cycle;Signal;HPM_P1;HPM_P2
2022/06/17 00:02:03;;;;;;;;;8.50;8.50;;;;;26.82;31.34;101348.47;5094743;27;45614;-62
2022/06/17 00:04:29;;;;;;;;;11.00;11.00;;;;;26.82;31.62;101353.03;5059489;28;46739;-61
2022/06/17 00:06:58;;;;;;;;;10.75;10.00;;;;;26.81;31.81;101348.59;5053831;28;45548;-62
2022/06/17 00:09:26;;;;;;;;;10.75;10.75;;;;;26.82;31.83;101353.03;5055631;28;45523;-61
2022/06/17 00:11:51;;;;;;;;;10.25;10.25;;;;;26.79;31.69;101340.66;5054699;28;45554;-61
2022/06/17 00:14:23;;;;;;;;;9.25;8.25;;;;;26.74;31.71;101332.13;5059023;27;45768;-61
2022/06/17 00:16:49;;;;;;;;;9.60;9.60;;;;;26.76;31.89;101340.06;5060097;27;45626;-62
2022/06/17 00:19:18;;;;;;;;;9.00;9.00;;;;;26.71;31.93;101340.53;5067319;27;45583;-62
2022/06/17 00:21:46;;;;;;;;;10.00;10.00;;;;;26.72;32.20;101333.28;5066929;28;45497;-62
2022/06/17 00:24:17;;;;;;;;;12.50;11.25;;;;;26.71;31.83;101335.13;5055647;27;45493;-62
2022/06/17 00:26:43;;;;;;;;;11.50;11.50;;;;;26.74;32.01;101342.09;5074635;27;45468;-63
2022/06/17 00:29:13;;;;;;;;;12.25;10.75;;;;;26.72;31.92;101338.66;5095363;27;45555;-61
2022/06/17 00:31:39;;;;;;;;;9.25;9.25;;;;;26.70;32.30;101336.09;5094971;27;45461;-62
2022/06/17 00:34:06;;;;;;;;;11.00;11.00;;;;;26.65;31.86;101325.75;5083146;27;45883;-62
2022/06/17 00:36:31;;;;;;;;;12.50;10.50;;;;;26.63;32.47;101330.44;5054866;28;45462;-62
2022/06/17 00:38:56;;;;;;;;;11.25;11.25;;;;;26.58;32.59;101324.59;5074067;27;45537;-61
2022/06/17 00:41:26;;;;;;;;;11.00;11.00;;;;;26.60;32.33;101340.66;5074120;27;45586;-61
2022/06/17 00:43:53;;;;;;;;;11.25;11.25;;;;;26.55;32.56;101337.53;5071569;27;45528;-61
2022/06/17 00:46:47;;;;;;;;;11.50;11.50;;;;;26.48;32.68;101339.88;5073418;27;45483;-61
2022/06/17 00:49:23;;;;;;;;;10.00;10.00;;;;;26.44;33.00;101336.63;5065435;28;45510;-62
2022/06/17 00:52:00;;;;;;;;;9.25;9.25;;;;;26.40;33.04;101345.97;5054595;28;45513;-62
2022/06/17 00:54:28;;;;;;;;;12.00;11.00;;;;;26.38;33.17;101336.31;5054102;28;46758;-62
2022/06/17 00:56:54;;;;;;;;;11.00;11.00;;;;;26.33;33.38;101333.16;5058839;28;45611;-62
2022/06/17 00:59:19;;;;;;;;;9.00;9.00;;;;;26.31;33.40;101338.72;5074525;28;45511;-62
2022/06/17 01:02:05;;;;;;;;;11.75;10.50;;;;;26.26;33.36;101335.59;5072976;27;45639;-62
2022/06/17 01:04:45;;;;;;;;;9.00;9.00;;;;;26.28;33.73;101338.16;5065071;27;46608;-63
2022/06/17 01:07:20;;;;;;;;;11.75;11.75;;;;;26.25;33.64;101333.00;5072763;27;45461;-63
2022/06/17 01:09:58;;;;;;;;;9.50;9.50;;;;;26.19;33.95;101335.31;5064368;27;45560;-62
2022/06/17 01:12:38;;;;;;;;;11.25;11.25;;;;;26.16;34.15;101338.25;5073096;27;45425;-61
2022/06/17 01:15:06;;;;;;;;;10.00;10.00;;;;;26.15;34.00;101333.84;5060838;28;45510;-63
2022/06/17 01:17:35;;;;;;;;;9.50;9.50;;;;;26.16;33.89;101335.53;5062866;28;45502;-61
2022/06/17 01:20:02;;;;;;;;;8.75;8.75;;;;;26.16;34.07;101343.63;5072592;27;45548;-63
2022/06/17 01:22:40;;;;;;;;;9.25;9.25;;;;;26.13;34.31;101341.22;5072003;27;45486;-63
2022/06/17 01:25:08;;;;;;;;;12.50;11.00;;;;;26.12;34.18;101344.06;5059939;28;46757;-62
2022/06/17 01:27:46;;;;;;;;;9.40;9.40;;;;;26.09;34.35;101336.25;5053751;28;45441;-63
2022/06/17 01:30:16;;;;;;;;;10.00;10.00;;;;;26.09;34.35;101353.28;5059501;28;45729;-62
2022/06/17 01:32:51;;;;;;;;;10.50;10.00;;;;;26.07;34.48;101349.00;5053754;28;45497;-63
2022/06/17 01:35:19;;;;;;;;;10.25;9.50;;;;;26.08;34.53;101350.72;5055295;27;47688;-63
2022/06/17 01:37:45;;;;;;;;;14.25;13.00;;;;;26.07;34.49;101349.88;5070086;27;45421;-62
2022/06/17 01:40:11;;;;;;;;;8.25;8.25;;;;;26.00;34.61;101344.16;5058144;28;45605;-63
2022/06/17 01:42:39;;;;;;;;;10.00;10.00;;;;;26.04;34.53;101355.53;5061194;28;45533;-64
2022/06/17 01:45:05;;;;;;;;;10.25;9.25;;;;;26.03;34.62;101364.59;5064050;27;46546;-62
2022/06/17 01:47:32;;;;;;;;;10.50;9.50;;;;;25.99;34.54;101363.16;5057061;28;45519;-63
2022/06/17 01:50:03;;;;;;;;;12.25;10.75;;;;;25.97;34.73;101367.84;5069825;27;45893;-63
2022/06/17 01:52:34;;;;;;;;;10.75;10.75;;;;;25.95;34.70;101369.81;5077472;27;45532;-61
2022/06/17 01:55:05;;;;;;;;;10.50;10.50;;;;;25.92;34.69;101370.09;5073183;27;45536;-64
2022/06/17 01:57:56;;;;;;;;;7.50;7.50;;;;;25.87;35.07;101383.09;5069824;27;45580;-62
2022/06/17 02:00:25;;;;;;;;;9.50;9.50;;;;;25.84;35.13;101380.69;5076814;27;45504;-63
2022/06/17 02:02:56;;;;;;;;;11.00;11.00;;;;;25.80;35.29;101385.47;5072630;27;45568;-62
2022/06/17 02:05:24;;;;;;;;;10.25;10.25;;;;;25.77;35.16;101389.28;5076653;27;46283;-62
2022/06/17 02:07:54;;;;;;;;;11.50;11.50;;;;;25.79;35.36;101394.53;5075017;27;45473;-62
2022/06/17 02:10:22;;;;;;;;;8.75;8.75;;;;;25.78;35.40;101390.13;5073243;27;45455;-63
2022/06/17 02:12:48;;;;;;;;;11.00;11.00;;;;;25.75;35.10;101377.78;5076924;27;45484;-61
2022/06/17 02:15:14;;;;;;;;;9.50;9.50;;;;;25.75;35.69;101390.41;5074573;27;48216;-62
2022/06/17 02:17:44;;;;;;;;;10.00;9.75;;;;;25.76;35.36;101401.06;5075901;27;45544;-62
2022/06/17 02:20:12;;;;;;;;;9.25;9.25;;;;;25.75;35.24;101410.13;5075941;27;45580;-62
2022/06/17 02:22:38;;;;;;;;;10.75;10.75;;;;;25.76;35.37;101411.84;5058395;28;45450;-63
2022/06/17 02:25:08;;;;;;;;;10.00;10.00;;;;;25.74;35.43;101405.72;5074014;27;46182;-62
2022/06/17 02:27:35;;;;;;;;;9.00;9.00;;;;;25.76;35.49;101409.16;5075789;27;45569;-62
2022/06/17 02:30:03;;;;;;;;;10.00;10.00;;;;;25.75;35.40;101415.50;5065212;27;45429;-62
2022/06/17 02:32:31;;;;;;;;;9.00;9.00;;;;;25.75;35.13;101420.03;5056222;28;45635;-64
2022/06/17 02:35:00;;;;;;;;;7.25;7.25;;;;;25.75;35.54;101414.66;5059378;28;45485;-63
2022/06/17 02:37:29;;;;;;;;;8.75;8.00;;;;;25.75;35.49;101422.75;5055489;27;45411;-62
2022/06/17 02:39:57;;;;;;;;;11.25;11.25;;;;;25.75;35.22;101428.97;5055869;28;45416;-62
2022/06/17 02:42:30;;;;;;;;;9.25;9.25;;;;;25.75;35.59;101426.28;5056264;28;45553;-62
2022/06/17 02:45:17;;;;;;;;;10.50;10.50;;;;;25.73;35.79;101416.63;5058587;27;46678;-62
2022/06/17 02:47:44;;;;;;;;;9.75;9.75;;;;;25.69;35.98;101423.28;5062348;28;45555;-63
2022/06/17 02:50:23;;;;;;;;;8.75;8.75;;;;;25.66;36.00;101418.16;5056239;28;45585;-63
2022/06/17 02:52:50;;;;;;;;;9.50;9.50;;;;;25.65;35.94;101425.34;5056541;28;45512;-64
2022/06/17 02:55:22;;;;;;;;;10.50;9.50;;;;;25.65;35.92;101421.81;5072759;27;45497;-62
2022/06/17 02:57:47;;;;;;;;;10.50;10.50;;;;;25.66;36.05;101418.16;5059287;27;45556;-62
2022/06/17 03:00:20;;;;;;;;;10.25;10.25;;;;;25.66;35.96;101419.00;5065242;27;45695;-63
2022/06/17 03:02:54;;;;;;;;;9.00;9.00;;;;;25.68;36.08;101424.25;5056103;28;45406;-62
2022/06/17 03:05:24;;;;;;;;;12.00;12.00;;;;;25.67;35.85;101428.78;5057296;28;45431;-63
2022/06/17 03:07:51;;;;;;;;;10.00;9.50;;;;;25.66;35.77;101421.69;5070485;27;45505;-63
2022/06/17 03:10:24;;;;;;;;;11.25;11.00;;;;;25.63;36.00;101421.97;5056151;28;45451;-64
2022/06/17 03:12:56;;;;;;;;;11.00;11.00;;;;;25.62;36.19;101414.84;5054220;28;45527;-63
2022/06/17 03:15:23;;;;;;;;;9.00;9.00;;;;;25.59;36.18;101407.03;5068858;27;45431;-62
2022/06/17 03:17:48;;;;;;;;;11.25;11.00;;;;;25.58;36.20;101410.72;5075948;27;45508;-62
2022/06/17 03:20:29;;;;;;;;;9.25;9.25;;;;;25.59;36.11;101407.03;5073336;27;45495;-64
2022/06/17 03:23:03;;;;;;;;;9.75;9.75;;;;;25.59;36.17;101400.81;5055198;28;45619;-62
2022/06/17 03:25:59;;;;;;;;;15.25;12.50;;;;;25.56;36.39;101393.84;5055822;28;46595;-62
2022/06/17 03:28:37;;;;;;;;;9.50;9.50;;;;;25.55;36.44;101397.53;5063280;27;45442;-62
2022/06/17 03:31:14;;;;;;;;;11.75;11.75;;;;;25.49;36.67;101392.66;5072078;27;45429;-62
2022/06/17 03:33:55;;;;;;;;;12.00;11.00;;;;;25.50;36.59;101399.75;5062467;28;45605;-63
2022/06/17 03:36:27;;;;;;;;;11.00;11.00;;;;;25.48;36.34;101390.94;5073041;27;45576;-63
2022/06/17 03:38:57;;;;;;;;;14.50;12.75;;;;;25.46;36.79;101383.00;5074216;27;45553;-62
2022/06/17 03:41:37;;;;;;;;;12.00;12.00;;;;;25.46;36.65;101392.91;5074297;27;45496;-62
2022/06/17 03:44:26;;;;;;;;;13.25;12.00;;;;;25.43;36.90;101377.03;5065004;27;45395;-63
2022/06/17 03:46:55;;;;;;;;;13.25;13.00;;;;;25.45;36.77;101366.97;5069889;27;45694;-64
2022/06/17 03:49:29;;;;;;;;;13.00;13.00;;;;;25.41;37.03;101379.84;5072562;27;45616;-63
2022/06/17 03:52:00;;;;;;;;;13.25;13.25;;;;;25.29;37.42;101395.22;5075699;27;45437;-64
2022/06/17 03:54:25;;;;;;;;;13.00;13.00;;;;;25.37;37.37;101420.66;5072435;27;45556;-63
2022/06/17 03:56:53;;;;;;;;;11.25;11.25;;;;;25.26;37.56;101416.16;5073024;27;45999;-64
2022/06/17 03:59:24;;;;;;;;;13.00;13.00;;;;;25.27;37.41;101405.25;5075438;27;45508;-63
2022/06/17 04:01:58;;;;;;;;;13.00;13.00;;;;;25.30;37.71;101420.28;5060166;27;45555;-63
2022/06/17 04:04:28;;;;;;;;;14.00;12.00;;;;;25.24;37.53;101418.13;5054761;28;45534;-62
2022/06/17 04:06:56;;;;;;;;;12.50;12.50;;;;;25.28;37.08;101431.22;5053776;28;46511;-64
2022/06/17 04:09:24;;;;;;;;;9.75;9.75;;;;;25.30;37.27;101420.28;5054553;28;45564;-62
2022/06/17 04:11:58;;;;;;;;;10.50;10.50;;;;;25.27;37.15;101410.63;5055288;28;45533;-63
2022/06/17 04:14:29;;;;;;;;;12.25;10.25;;;;;25.28;36.84;101412.38;5067495;27;45370;-64
2022/06/17 04:17:07;;;;;;;;;10.25;9.25;;;;;25.30;36.61;101415.75;5072680;27;45630;-63
2022/06/17 04:19:32;;;;;;;;;10.25;10.25;;;;;25.32;36.30;101415.63;5075157;27;45598;-63
2022/06/17 04:22:22;;;;;;;;;10.00;10.00;;;;;25.31;36.17;101414.78;5072292;27;45500;-64
2022/06/17 04:24:54;;;;;;;;;10.00;10.00;;;;;25.30;36.59;101415.75;5054700;28;45573;-63
2022/06/17 04:27:21;;;;;;;;;8.25;8.25;;;;;25.31;36.17;101422.03;5065239;28;47608;-63
2022/06/17 04:29:51;;;;;;;;;11.75;9.75;;;;;25.30;36.14;101426.53;5056039;28;45596;-63
2022/06/17 04:32:24;;;;;;;;;10.50;10.50;;;;;25.27;36.25;101416.03;5064814;27;45877;-62
2022/06/17 04:34:50;;;;;;;;;9.75;9.25;;;;;25.30;36.38;101420.28;5066109;27;45625;-62
2022/06/17 04:37:20;;;;;;;;;10.75;10.75;;;;;25.28;35.87;101423.13;5072094;27;46144;-64
2022/06/17 04:39:52;;;;;;;;;8.25;8.25;;;;;25.20;35.85;101425.63;5073647;27;45884;-62
2022/06/17 04:42:32;;;;;;;;;12.25;10.25;;;;;25.15;36.53;101425.16;5074692;27;45565;-63
2022/06/17 04:44:58;;;;;;;;;6.50;6.50;;;;;25.10;36.21;101422.81;5072371;27;45450;-62
2022/06/17 04:47:24;;;;;;;;;10.00;10.00;;;;;25.08;36.37;101423.91;5069340;27;46219;-62
2022/06/17 04:49:58;;;;;;;;;11.50;10.00;;;;;25.07;36.24;101427.59;5055350;28;45469;-63
2022/06/17 04:52:34;;;;;;;;;11.00;11.00;;;;;25.07;36.59;101432.97;5064421;27;45394;-64
2022/06/17 04:55:01;;;;;;;;;10.00;10.00;;;;;25.07;36.53;101439.22;5073132;27;45441;-63
2022/06/17 04:57:28;;;;;;;;;9.50;9.50;;;;;25.06;36.29;101436.63;5072626;27;45511;-63
2022/06/17 04:59:58;;;;;;;;;10.25;8.50;;;;;25.07;36.23;101439.22;5070521;27;45450;-63
2022/06/17 05:02:25;;;;;;;;;7.75;7.75;;;;;25.07;36.37;101431.13;5062929;27;45485;-63
2022/06/17 05:04:54;;;;;;;;;7.50;7.25;;;;;25.09;36.35;101434.56;5067705;27;45646;-63
2022/06/17 05:07:20;;;;;;;;;11.25;11.25;;;;;25.09;36.34;101433.69;5071741;28;45586;-62
2022/06/17 05:09:56;;;;;;;;;8.75;8.75;;;;;25.04;36.41;101431.41;5057718;28;45506;-62
2022/06/17 05:12:38;;;;;;;;;9.00;9.00;;;;;25.02;36.56;101427.13;5060693;27;45475;-62
2022/06/17 05:15:09;;;;;;;;;9.00;9.00;;;;;25.00;36.41;101429.94;5054171;28;45494;-64
2022/06/17 05:17:34;;;;;;;;;10.00;8.00;;;;;24.98;36.50;101426.50;5068956;28;46079;-63
2022/06/17 05:20:00;;;;;;;;;12.25;11.00;;;;;24.96;36.73;101417.72;5077897;27;45524;-65
2022/06/17 05:22:35;;;;;;;;;9.00;9.00;;;;;24.95;36.99;101426.75;5075930;27;45518;-63
2022/06/17 05:25:04;;;;;;;;;10.00;10.00;;;;;24.98;36.73;101420.28;5066913;27;45522;-63
2022/06/17 05:27:29;;;;;;;;;11.00;11.00;;;;;24.96;37.42;101417.72;5068178;27;46783;-61
2022/06/17 05:29:55;;;;;;;;;10.00;10.00;;;;;24.95;36.91;101412.47;5071882;27;45480;-62
2022/06/17 05:32:21;;;;;;;;;10.50;10.50;;;;;24.99;36.77;101422.84;5075256;27;45484;-61
2022/06/17 05:34:47;;;;;;;;;10.00;8.50;;;;;24.97;36.75;101411.34;5067783;27;45528;-62
2022/06/17 05:37:14;;;;;;;;;9.75;8.00;;;;;24.97;36.96;101408.66;5057306;28;46489;-62
2022/06/17 05:39:39;;;;;;;;;11.50;10.25;;;;;24.96;37.10;101400.69;5057341;28;45481;-62
2022/06/17 05:42:05;;;;;;;;;10.00;10.00;;;;;24.96;37.49;101401.56;5065304;27;45558;-65
2022/06/17 05:44:32;;;;;;;;;10.50;10.25;;;;;24.96;37.35;101411.47;5076562;27;45480;-64
2022/06/17 05:46:58;;;;;;;;;10.25;10.25;;;;;24.97;37.64;101407.81;5070803;27;46200;-64
2022/06/17 05:49:24;;;;;;;;;10.00;10.00;;;;;24.95;37.48;101404.38;5070399;27;45576;-62
2022/06/17 05:51:49;;;;;;;;;10.00;9.25;;;;;24.95;37.66;101404.38;5075869;27;45519;-66
2022/06/17 05:54:14;;;;;;;;;9.25;9.25;;;;;24.96;37.53;101406.97;5068635;27;45487;-64
2022/06/17 05:56:40;;;;;;;;;9.75;9.75;;;;;25.04;37.71;101408.97;5077156;27;50666;-66
2022/06/17 05:59:05;;;;;;;;;8.75;8.75;;;;;25.07;37.23;101416.84;5057831;27;45553;-64
2022/06/17 06:01:30;;;;;;;;;10.00;10.00;;;;;25.07;37.47;101419.53;5065809;27;45554;-61
2022/06/17 06:03:56;;;;;;;;;10.25;10.25;;;;;25.10;37.75;101419.25;5067083;27;45555;-71
2022/06/17 06:06:21;;;;;;;;;32.00;30.00;;;;;25.13;37.50;101421.69;5057801;28;46349;-67
2022/06/17 06:08:46;;;;;;;;;10.25;10.25;;;;;25.13;37.35;101416.31;5070070;27;45435;-68
2022/06/17 06:11:12;;;;;;;;;10.75;10.75;;;;;25.12;36.83;101411.91;5073031;27;45469;-67
2022/06/17 06:13:37;;;;;;;;;10.00;10.00;;;;;25.12;36.95;101414.59;5066950;27;47797;-70
2022/06/17 06:16:03;;;;;;;;;11.00;10.50;;;;;25.07;37.22;101406.91;5062262;27;46494;-69
2022/06/17 06:18:33;;;;;;;;;13.00;10.50;;;;;25.13;37.19;101402.84;5069717;27;45592;-68
2022/06/17 06:21:00;;;;;;;;;9.75;9.75;;;;;25.11;37.20;101397.56;5066848;27;45516;-70
2022/06/17 06:23:25;;;;;;;;;10.75;10.75;;;;;25.09;37.02;101388.81;5056970;27;45426;-68
2022/06/17 06:25:51;;;;;;;;;10.50;10.50;;;;;25.09;37.22;101387.91;5057944;28;46471;-68
2022/06/17 06:28:19;;;;;;;;;12.25;10.25;;;;;25.08;37.31;101388.91;5061432;27;45541;-70
2022/06/17 06:30:59;;;;;;;;;12.75;12.25;;;;;25.10;37.21;101386.97;5058600;27;45629;-66
2022/06/17 06:33:25;;;;;;;;;10.00;10.00;;;;;25.09;37.71;101386.13;5060779;27;45461;-66
2022/06/17 06:35:50;;;;;;;;;10.25;10.25;;;;;25.11;37.51;101385.97;5060281;28;45476;-62
2022/06/17 06:38:16;;;;;;;;;10.00;10.00;;;;;25.13;37.68;101381.31;5060891;27;45454;-61
2022/06/17 06:40:41;;;;;;;;;10.75;10.75;;;;;25.12;37.56;101369.69;5075268;27;45402;-61
2022/06/17 06:43:15;;;;;;;;;10.75;9.00;;;;;25.19;37.60;101374.59;5059653;28;45653;-64
2022/06/17 06:45:42;;;;;;;;;12.75;11.00;;;;;25.25;37.59;101384.81;5062185;27;45539;-62
2022/06/17 06:48:09;;;;;;;;;11.50;10.75;;;;;25.30;37.34;101390.66;5065709;27;45443;-63
2022/06/17 06:50:36;;;;;;;;;11.00;9.50;;;;;25.34;37.13;101387.59;5067014;27;45504;-61
2022/06/17 06:53:02;;;;;;;;;12.75;11.50;;;;;25.39;37.29;101380.94;5076616;27;45470;-62
2022/06/17 06:55:28;;;;;;;;;11.25;11.25;;;;;25.40;37.34;101380.84;5075116;27;46203;-62
2022/06/17 06:57:56;;;;;;;;;13.00;12.00;;;;;25.44;37.43;101378.72;5072194;27;45837;-62
2022/06/17 07:00:24;;;;;;;;;15.00;13.75;;;;;25.46;37.55;101377.59;5066904;27;45430;-64
2022/06/17 07:02:50;;;;;;;;;13.00;11.25;;;;;25.50;37.06;101376.38;5068008;27;45669;-61
2022/06/17 07:05:16;;;;;;;;;10.50;10.25;;;;;25.54;37.14;101376.94;5067625;27;46539;-60
2022/06/17 07:07:42;;;;;;;;;14.50;13.50;;;;;25.57;37.43;101380.22;5076138;27;45497;-61
2022/06/17 07:10:12;;;;;;;;;12.50;12.25;;;;;25.61;37.64;101391.59;5074993;27;45541;-62
2022/06/17 07:12:37;;;;;;;;;22.50;18.75;;;;;25.64;37.34;101391.34;5076016;27;45605;-61
2022/06/17 07:15:04;;;;;;;;;14.50;14.00;;;;;25.70;37.07;101395.34;5075579;27;49366;-62
2022/06/17 07:17:29;;;;;;;;;11.00;11.00;;;;;25.78;36.92;101398.22;5075876;27;45436;-62
2022/06/17 07:19:55;;;;;;;;;16.25;15.00;;;;;25.81;36.40;101405.19;5074861;27;45481;-60
2022/06/17 07:22:20;;;;;;;;;11.25;11.25;;;;;25.85;36.56;101409.38;5072615;27;45564;-62
2022/06/17 07:24:46;;;;;;;;;11.25;11.25;;;;;25.94;36.27;101413.94;5055132;28;45623;-62
2022/06/17 07:27:12;;;;;;;;;12.00;12.00;;;;;26.03;35.89;101412.28;5056011;27;45490;-62
2022/06/17 07:29:37;;;;;;;;;9.75;9.75;;;;;26.08;36.00;101402.78;5055898;28;45485;-61
2022/06/17 07:32:02;;;;;;;;;10.00;10.00;;;;;26.13;35.71;101410.47;5062908;27;45528;-63
2022/06/17 07:34:28;;;;;;;;;16.25;13.75;;;;;26.15;35.58;101403.09;5074114;27;46280;-61
2022/06/17 07:39:55;;;;;;;;;9.75;9.00;;;;;26.17;36.06;101398.44;5072931;27;45487;-63
2022/06/17 07:42:22;;;;;;;;;13.75;12.50;;;;;26.15;35.99;101403.97;5071639;27;45490;-63
2022/06/17 07:44:48;;;;;;;;;11.00;11.00;;;;;26.16;36.09;101413.75;5074216;27;46303;-63
2022/06/17 07:47:16;;;;;;;;;11.00;11.00;;;;;26.20;36.41;101425.97;5064780;27;45477;-62
2022/06/17 07:49:41;;;;;;;;;10.00;10.00;;;;;26.21;36.63;101432.22;5074013;27;45917;-60
2022/06/17 07:52:07;;;;;;;;;9.00;9.00;;;;;26.24;36.79;101442.72;5075335;27;45435;-61
2022/06/17 07:54:32;;;;;;;;;12.50;12.50;;;;;26.28;36.51;101454.13;5073846;27;46479;-60
2022/06/17 07:56:57;;;;;;;;;10.75;10.75;;;;;26.29;36.27;101448.56;5075424;28;45524;-63
2022/06/17 07:59:23;;;;;;;;;0.25;0.25;;;;;26.30;36.38;101450.28;5074275;27;45558;-62
2022/06/17 08:01:48;;;;;;;;;11.25;10.25;;;;;26.37;35.72;101454.13;5065566;27;45593;-61
2022/06/17 08:04:14;;;;;;;;;11.75;11.75;;;;;26.37;35.88;101451.44;5062175;28;51114;-61
2022/06/17 08:06:39;;;;;;;;;9.75;9.50;;;;;26.40;35.98;101450.31;5069861;27;45421;-62
2022/06/17 08:09:04;;;;;;;;;10.00;9.00;;;;;26.42;35.21;101451.88;5055371;28;45882;-61
2022/06/17 08:11:30;;;;;;;;;12.00;12.00;;;;;26.41;34.92;101455.59;5053863;28;45656;-60
2022/06/17 08:13:55;;;;;;;;;15.00;14.00;;;;;26.44;35.21;101460.72;5055660;28;45734;-60
2022/06/17 08:16:20;;;;;;;;;12.00;11.50;;;;;26.47;35.25;101453.34;5055773;28;45530;-61
2022/06/17 08:18:46;;;;;;;;;17.50;15.25;;;;;26.49;34.98;101463.00;5067060;27;45904;-61
2022/06/17 08:21:12;;;;;;;;;15.00;14.00;;;;;26.55;35.12;101467.88;5074809;27;45472;-61
2022/06/17 08:23:38;;;;;;;;;12.00;12.00;;;;;26.60;34.61;101471.03;5071743;27;47492;-61
2022/06/17 08:26:04;;;;;;;;;12.40;12.40;;;;;26.65;34.43;101460.66;5066247;28;45598;-60
2022/06/17 08:28:29;;;;;;;;;11.75;11.25;;;;;26.63;34.65;101446.47;5061967;27;45480;-60
2022/06/17 08:30:56;;;;;;;;;18.25;17.50;;;;;26.73;34.48;101451.00;5068139;27;45496;-60
2022/06/17 08:33:28;;;;;;;;;9.75;9.50;;;;;26.78;33.98;101455.00;5058917;27;45511;-60
2022/06/17 08:35:58;;;;;;;;;10.00;10.00;;;;;26.75;33.65;101449.88;5072871;28;45520;-61
2022/06/17 08:38:28;;;;;;;;;9.00;9.00;;;;;26.77;34.02;101445.22;5073584;28;45547;-61
2022/06/17 08:40:53;;;;;;;;;12.00;10.75;;;;;26.85;33.94;101452.63;5073383;27;45497;-61
2022/06/17 08:43:40;;;;;;;;;11.25;10.00;;;;;26.86;34.01;101446.22;5072633;28;47206;-61
2022/06/17 08:46:18;;;;;;;;;12.00;11.00;;;;;26.92;34.25;101439.41;5072540;27;45418;-61
2022/06/17 08:49:17;;;;;;;;;8.75;8.50;;;;;26.96;34.51;101436.28;5072107;27;45537;-61
2022/06/17 08:51:45;;;;;;;;;9.75;9.75;;;;;27.01;34.01;101435.88;5074830;27;45483;-61
2022/06/17 08:54:13;;;;;;;;;10.00;10.00;;;;;27.04;34.31;101439.13;5070649;27;46411;-60
2022/06/17 08:57:17;;;;;;;;;9.50;9.50;;;;;27.08;34.56;101435.16;5054266;28;45491;-60
2022/06/17 08:59:45;;;;;;;;;12.50;12.50;;;;;27.11;34.15;101436.72;5024181;28;45515;-61
2022/06/17 09:02:43;;;;;;;;;10.50;9.50;;;;;27.16;34.03;101425.47;5070427;27;45671;-61
2022/06/17 09:05:20;;;;;;;;;12.00;11.00;;;;;27.20;33.18;101425.09;5036154;28;46259;-61
2022/06/17 09:08:04;;;;;;;;;8.75;8.75;;;;;27.25;33.30;101427.38;5071728;27;45522;-61
2022/06/17 09:10:49;;;;;;;;;6.75;6.75;;;;;27.30;32.05;101430.50;5063177;27;45823;-61
2022/06/17 09:13:44;;;;;;;;;7.25;7.25;;;;;27.33;31.24;101424.81;5073009;27;45485;-61
2022/06/17 09:16:21;;;;;;;;;7.50;7.50;;;;;27.36;31.44;101418.28;5066829;28;45555;-61
2022/06/17 09:18:52;;;;;;;;;9.75;9.75;;;;;27.44;31.45;101429.22;5073078;27;45432;-61
2022/06/17 09:21:28;;;;;;;;;8.00;8.00;;;;;27.45;31.79;101429.06;5071966;28;45476;-60
2022/06/17 09:23:56;;;;;;;;;10.00;8.50;;;;;27.48;31.08;101426.06;5069950;28;45607;-62
2022/06/17 09:26:29;;;;;;;;;8.75;8.75;;;;;27.51;30.79;101423.09;5069075;27;46312;-62
2022/06/17 09:29:01;;;;;;;;;8.80;8.40;;;;;27.53;31.51;101426.47;5053782;28;45457;-61
2022/06/17 09:31:35;;;;;;;;;8.00;6.00;;;;;27.55;32.05;101418.25;5059253;28;45481;-60
2022/06/17 09:34:03;;;;;;;;;10.50;10.00;;;;;27.59;31.85;101422.34;5072472;27;45504;-62
2022/06/17 09:36:56;;;;;;;;;8.50;8.50;;;;;27.61;31.77;101419.50;5054229;28;45609;-62
2022/06/17 09:39:41;;;;;;;;;11.00;11.00;;;;;27.65;31.44;101429.03;5056345;28;45488;-61
2022/06/17 09:42:14;;;;;;;;;10.75;9.75;;;;;27.68;30.90;101418.78;5069827;27;45511;-61
2022/06/17 09:45:09;;;;;;;;;11.00;11.00;;;;;27.73;31.57;101421.06;5053832;28;45351;-60
2022/06/17 09:47:41;;;;;;;;;11.25;11.25;;;;;27.76;30.73;101421.59;5047809;28;45528;-60
2022/06/17 09:50:32;;;;;;;;;10.00;10.00;;;;;27.76;30.97;101416.19;5053684;28;45470;-61
2022/06/17 09:53:11;;;;;;;;;8.75;8.75;;;;;27.83;31.01;101430.00;5054853;27;45532;-60
2022/06/17 09:55:43;;;;;;;;;10.00;8.50;;;;;27.84;30.15;101430.88;5061774;28;45576;-60
2022/06/17 09:58:19;;;;;;;;;17.75;17.25;;;;;27.86;30.19;101418.94;5063902;27;45647;-60
2022/06/17 10:00:54;;;;;;;;;11.20;9.20;;;;;27.88;30.35;101410.66;5065149;27;45608;-61
2022/06/17 10:03:30;;;;;;;;;11.25;11.00;;;;;27.88;30.29;101414.19;5054338;28;45559;-61
2022/06/17 10:06:13;;;;;;;;;10.25;10.25;;;;;27.91;30.75;101419.31;5059368;28;45589;-60
2022/06/17 10:09:14;;;;;;;;;11.00;11.00;;;;;27.97;30.52;101417.91;5067682;27;46440;-61
2022/06/17 10:11:45;;;;;;;;;10.00;8.20;;;;;28.00;30.83;101416.75;5068378;27;45430;-61
2022/06/17 10:14:37;;;;;;;;;9.40;9.20;;;;;28.00;30.39;101412.19;5062266;27;45539;-61
2022/06/17 10:20:35;;;;;;;;;9.75;9.00;;;;;28.08;30.19;101414.16;5070451;27;45977;-61
2022/06/17 10:23:06;;;;;;;;;9.40;9.40;;;;;28.13;29.75;101423.53;5072400;27;45691;-61
2022/06/17 10:25:46;;;;;;;;;9.00;7.75;;;;;28.12;30.01;101412.84;5076797;27;45448;-61
2022/06/17 10:28:21;;;;;;;;;8.25;8.25;;;;;28.13;29.64;101407.28;5076420;27;45493;-61
2022/06/17 10:30:56;;;;;;;;;7.75;6.75;;;;;28.18;29.57;101401.41;5061081;27;46749;-61
2022/06/17 10:33:23;;;;;;;;;7.20;6.80;;;;;28.20;30.29;101404.81;5066220;27;45438;-61
2022/06/17 10:35:49;;;;;;;;;6.60;6.60;;;;;28.24;29.23;101399.97;5074817;27;45470;-61
2022/06/17 10:38:20;;;;;;;;;7.75;7.75;;;;;28.29;30.13;101403.94;5076440;27;45782;-60
2022/06/17 10:40:45;;;;;;;;;9.00;7.00;;;;;28.29;29.29;101398.53;5076088;27;46208;-61
2022/06/17 10:43:15;;;;;;;;;8.00;8.00;;;;;28.32;29.19;101400.94;5074766;27;45583;-61
2022/06/17 10:45:41;;;;;;;;;7.00;6.60;;;;;28.33;28.34;101396.38;5056902;28;45473;-59
2022/06/17 10:48:21;;;;;;;;;6.00;6.00;;;;;28.32;27.71;101403.63;5077730;27;45555;-61
2022/06/17 10:50:47;;;;;;;;;7.25;7.25;;;;;28.38;28.54;101397.63;5078383;27;47292;-60
2022/06/17 10:53:48;;;;;;;;;7.60;7.60;;;;;28.45;29.40;101400.59;5083977;27;45811;-60
2022/06/17 10:56:22;;;;;;;;;7.00;7.00;;;;;28.47;29.12;101408.56;5001349;28;45465;-61
2022/06/17 10:59:08;;;;;;;;;8.75;8.00;;;;;28.50;28.81;101406.41;5055520;28;45414;-60
2022/06/17 11:01:45;;;;;;;;;11.00;11.00;;;;;28.51;29.22;101409.97;5085345;27;47188;-61
2022/06/17 11:04:29;;;;;;;;;11.20;9.40;;;;;28.52;29.20;101408.97;5077017;27;46229;-62
2022/06/17 11:06:57;;;;;;;;;9.00;9.00;;;;;28.55;30.19;101411.38;5070859;27;45431;-69
2022/06/17 11:09:28;;;;;;;;;10.00;10.00;;;;;28.55;30.86;101419.50;5075731;27;45491;-67
2022/06/17 11:12:10;;;;;;;;;7.75;6.75;;;;;28.54;30.60;101412.38;5070674;27;45645;-65
2022/06/17 11:14:49;;;;;;;;;8.20;8.20;;;;;28.54;28.53;101405.09;5056656;28;45498;-66
2022/06/17 11:17:45;;;;;;;;;8.00;8.00;;;;;28.56;28.35;101408.53;5075501;28;45423;-63
2022/06/17 11:20:16;;;;;;;;;9.00;9.00;;;;;28.60;29.36;101419.88;5061213;27;45436;-64
2022/06/17 11:22:51;;;;;;;;;9.50;9.25;;;;;28.61;29.61;101411.63;5060939;27;45490;-63
2022/06/17 11:25:32;;;;;;;;;13.25;13.25;;;;;28.62;30.19;101405.19;5078616;27;45477;-66
2022/06/17 11:28:31;;;;;;;;;10.60;10.60;;;;;28.66;29.68;101396.78;5078253;27;45507;-67
2022/06/17 11:31:05;;;;;;;;;10.00;10.00;;;;;28.73;30.18;101406.84;5075733;27;45489;-66
2022/06/17 11:33:41;;;;;;;;;11.25;11.25;;;;;28.74;29.58;101411.22;5072504;27;45569;-63
2022/06/17 11:36:19;;;;;;;;;10.00;9.80;;;;;28.78;28.88;101409.09;5064478;27;45533;-64
2022/06/17 11:38:45;;;;;;;;;8.20;8.00;;;;;28.80;28.95;101405.22;5054994;28;45962;-64
2022/06/17 11:41:19;;;;;;;;;10.00;10.00;;;;;28.85;30.25;101408.31;5055003;28;45583;-65